createdAt,value
2024-03-23T00:05:23.527Z,82.70
2024-03-23T00:10:51.811Z,83.61
2024-03-23T00:16:01.731Z,84.10
2024-03-23T00:21:13.998Z,84.34
2024-03-23T00:26:59.311Z,84.70
2024-03-23T00:32:04.123Z,84.23
2024-03-23T00:37:37.176Z,85.03
2024-03-23T00:43:02.760Z,84.61
2024-03-23T00:48:47.032Z,84.97
2024-03-23T00:54:39.182Z,85.75
2024-03-23T00:59:51.079Z,84.96
2024-03-23T01:05:14.740Z,84.49
2024-03-23T01:10:33.376Z,84.16
2024-03-23T01:15:42.675Z,84.91
2024-03-23T01:20:57.822Z,85.16
2024-03-23T01:26:49.753Z,85.72
2024-03-23T01:32:48.956Z,84.83
2024-03-23T01:39:03.066Z,84.96
2024-03-23T01:45:27.201Z,84.27
2024-03-23T01:51:41.406Z,85.65
2024-03-23T01:58:10.484Z,85.48
2024-03-23T02:04:34.237Z,85.51
2024-03-23T02:10:58.951Z,86.54
2024-03-23T02:17:06.706Z,87.25
2024-03-23T02:23:21.782Z,86.87
2024-03-23T02:29:28.511Z,86.69
2024-03-23T02:35:52.331Z,86.33
2024-03-23T02:41:56.921Z,86.45
2024-03-23T02:47:59.721Z,86.61
2024-03-23T02:53:54.249Z,86.08
2024-03-23T03:00:18.833Z,86.82
2024-03-23T03:06:43.622Z,86.66
2024-03-23T03:13:15.594Z,86.61
2024-03-23T03:19:29.519Z,86.95
2024-03-23T03:25:55.059Z,86.66
2024-03-23T03:32:00.908Z,85.80
2024-03-23T03:38:23.534Z,86.31
2024-03-23T03:44:48.514Z,86.13
2024-03-23T03:51:13.570Z,85.75
2024-03-23T03:57:21.135Z,85.61
2024-03-23T04:03:45.581Z,85.81
2024-03-23T04:10:02.068Z,86.17
2024-03-23T04:16:10.817Z,86.41
2024-03-23T04:22:35.007Z,86.38
2024-03-23T04:28:59.244Z,86.69
2024-03-23T04:35:05.738Z,86.93
2024-03-23T04:41:33.107Z,87.07
2024-03-23T04:47:37.901Z,87.22
2024-03-23T04:53:53.677Z,87.10
2024-03-23T04:59:47.995Z,86.76
2024-03-23T05:06:12.055Z,86.63
2024-03-23T05:12:37.566Z,87.15
2024-03-23T05:18:56.859Z,87.47
2024-03-23T05:25:04.831Z,87.78
2024-03-23T05:31:15.751Z,87.32
2024-03-23T05:37:35.533Z,86.70
2024-03-23T05:44:01.864Z,86.81
2024-03-23T05:50:29.252Z,87.21
2024-03-23T05:56:57.830Z,87.27
2024-03-23T06:03:15.769Z,87.88
2024-03-23T06:09:16.247Z,88.04
2024-03-23T06:15:23.629Z,86.70
2024-03-23T06:21:49.444Z,87.11
2024-03-23T06:28:07.421Z,87.30
2024-03-23T06:34:23.261Z,86.84
2024-03-23T06:40:48.007Z,85.27
2024-03-23T06:46:53.329Z,85.68
2024-03-23T06:52:54.391Z,85.57
2024-03-23T06:59:10.105Z,85.39
2024-03-23T07:05:03.604Z,85.93
2024-03-23T07:11:29.262Z,86.05
2024-03-23T07:17:56.166Z,84.80
2024-03-23T07:24:03.075Z,84.29
2024-03-23T07:30:19.499Z,83.50
2024-03-23T07:36:13.440Z,81.89
2024-03-23T07:41:20.863Z,80.66
2024-03-23T07:46:44.338Z,80.22
2024-03-23T07:52:39.802Z,79.80
2024-03-23T07:58:54.394Z,78.31
2024-03-23T08:04:46.000Z,76.11
2024-03-23T08:11:10.288Z,73.54
2024-03-23T08:17:26.613Z,71.75
2024-03-23T08:23:51.552Z,71.99
2024-03-23T08:37:06.669Z,72.03
2024-03-23T08:43:15.566Z,70.81
2024-03-23T08:49:23.966Z,68.87
2024-03-23T08:55:19.037Z,67.77
2024-03-23T09:00:46.839Z,65.95
2024-03-23T09:06:56.292Z,64.87
2024-03-23T09:13:10.926Z,65.98
2024-03-23T09:19:20.065Z,65.72
2024-03-23T09:25:21.252Z,65.96
2024-03-23T09:31:20.912Z,67.14
2024-03-23T09:36:49.012Z,66.82
2024-03-23T09:42:54.921Z,67.68
2024-03-23T09:48:51.133Z,67.88
2024-03-23T09:54:57.256Z,68.81
2024-03-23T10:00:47.022Z,68.51
2024-03-23T10:06:23.202Z,68.75
2024-03-23T10:11:50.812Z,68.86
2024-03-23T10:17:36.018Z,68.20
2024-03-23T10:23:41.105Z,67.97
2024-03-23T10:29:35.296Z,66.53
2024-03-23T10:35:42.737Z,63.80
2024-03-23T10:42:01.281Z,63.84
2024-03-23T10:47:47.701Z,62.36
2024-03-23T10:53:02.116Z,61.29
2024-03-23T10:58:36.877Z,60.20
2024-03-23T11:03:48.662Z,60.86
2024-03-23T11:09:46.039Z,61.69
2024-03-23T11:16:02.958Z,60.87
2024-03-23T11:22:35.099Z,61.68
2024-03-23T11:28:50.509Z,60.54
2024-03-23T11:34:24.132Z,59.33
2024-03-23T11:40:41.346Z,58.70
2024-03-23T11:46:11.183Z,57.46
2024-03-23T11:51:31.352Z,54.64
2024-03-23T11:56:50.633Z,54.88
2024-03-23T12:02:22.908Z,54.32
2024-03-23T12:08:37.911Z,54.19
2024-03-23T12:14:32.912Z,54.54
2024-03-23T12:20:37.802Z,56.56
2024-03-23T12:26:47.686Z,57.82
2024-03-23T12:32:06.185Z,56.60
2024-03-23T12:37:58.853Z,55.14
2024-03-23T12:43:46.179Z,55.58
2024-03-23T12:49:46.595Z,55.11
2024-03-23T12:55:51.893Z,55.11
2024-03-23T13:01:49.014Z,56.36
2024-03-23T13:07:45.005Z,57.08
2024-03-23T13:13:34.394Z,60.83
2024-03-23T13:19:18.353Z,61.78
2024-03-23T13:25:22.793Z,62.29
2024-03-23T13:31:31.329Z,64.81
2024-03-23T13:37:48.055Z,68.61
2024-03-23T13:43:52.455Z,67.76
2024-03-23T13:50:28.737Z,67.57
2024-03-23T13:56:21.127Z,67.13
2024-03-23T14:01:37.203Z,64.96
2024-03-23T14:07:06.045Z,66.17
2024-03-23T14:13:03.647Z,67.31
2024-03-23T14:19:07.875Z,68.80
2024-03-23T14:25:32.611Z,71.92
2024-03-23T14:31:57.446Z,74.48
2024-03-23T14:37:55.289Z,76.26
2024-03-23T14:44:02.820Z,77.21
2024-03-23T14:50:11.720Z,77.47
2024-03-23T14:56:16.777Z,76.84
2024-03-23T15:02:14.009Z,75.63
2024-03-23T15:08:23.164Z,75.47
2024-03-23T15:14:47.408Z,75.02
2024-03-23T15:21:03.146Z,75.63
2024-03-23T15:26:33.961Z,75.87
2024-03-23T15:32:57.999Z,76.41
2024-03-23T15:39:02.229Z,77.64
2024-03-23T15:45:08.028Z,77.67
2024-03-23T15:51:33.403Z,78.17
2024-03-23T15:57:59.516Z,77.67
2024-03-23T16:03:36.226Z,76.78
2024-03-23T16:09:51.427Z,76.54
2024-03-23T16:15:57.073Z,76.36
2024-03-23T16:22:15.644Z,76.45
2024-03-23T16:28:28.398Z,75.91
2024-03-23T16:34:44.060Z,75.28
2024-03-23T16:40:51.024Z,74.80
2024-03-23T16:46:47.069Z,74.77
2024-03-23T16:53:00.463Z,75.10
2024-03-23T16:59:03.189Z,75.61
2024-03-23T17:05:16.412Z,75.92
2024-03-23T17:11:22.289Z,75.70
2024-03-23T17:17:45.173Z,75.54
2024-03-23T17:23:52.748Z,75.65
2024-03-23T17:30:17.861Z,75.09
2024-03-23T17:36:24.135Z,73.17
2024-03-23T17:42:44.662Z,73.82
2024-03-23T17:49:09.658Z,73.86
2024-03-23T17:55:26.268Z,73.85
2024-03-23T18:01:00.818Z,73.70
2024-03-23T18:06:05.044Z,74.36
2024-03-23T18:12:24.248Z,74.70
2024-03-23T18:17:31.453Z,75.24
2024-03-23T18:23:27.429Z,75.81
2024-03-23T18:28:52.819Z,76.23
2024-03-23T18:33:58.456Z,76.75
2024-03-23T18:39:38.561Z,77.23
2024-03-23T18:45:29.003Z,77.37
2024-03-23T18:51:12.042Z,77.84
2024-03-23T18:57:04.659Z,78.35
2024-03-23T19:03:21.443Z,78.87
2024-03-23T19:09:04.476Z,78.86
2024-03-23T19:15:22.318Z,78.55
2024-03-23T19:21:20.457Z,78.99
2024-03-23T19:27:40.931Z,78.91
2024-03-23T19:34:06.771Z,79.09
2024-03-23T19:40:31.396Z,79.31
2024-03-23T19:46:25.513Z,79.02
2024-03-23T19:52:52.357Z,78.34
2024-03-23T19:59:08.227Z,78.38
2024-03-23T20:05:33.718Z,78.31
2024-03-23T20:18:37.533Z,78.52
2024-03-23T20:24:47.625Z,78.71
2024-03-23T20:31:04.420Z,79.09
2024-03-23T20:37:33.366Z,79.15
2024-03-23T20:43:28.785Z,79.00
2024-03-23T20:49:51.733Z,79.17
2024-03-23T20:56:18.120Z,79.24
2024-03-23T21:02:32.159Z,79.51
2024-03-23T21:09:03.208Z,79.84
2024-03-23T21:15:28.854Z,80.25
2024-03-23T21:21:52.868Z,80.29
2024-03-23T21:28:22.545Z,79.72
2024-03-23T21:34:11.411Z,80.20
2024-03-23T21:40:17.010Z,80.43
2024-03-23T21:46:34.710Z,80.47
2024-03-23T21:52:34.506Z,81.10
2024-03-23T21:57:59.900Z,81.73
2024-03-23T22:04:05.514Z,81.44
2024-03-23T22:10:21.119Z,81.39
2024-03-23T22:16:27.624Z,81.08
2024-03-23T22:22:34.674Z,80.95
2024-03-23T22:28:12.527Z,80.63
2024-03-23T22:33:40.435Z,80.85
2024-03-23T22:39:08.084Z,80.59
2024-03-23T22:44:30.789Z,80.72
2024-03-23T22:50:22.326Z,80.62
2024-03-23T22:55:53.170Z,80.66
2024-03-23T23:01:36.635Z,80.91
2024-03-23T23:07:06.820Z,80.86
2024-03-23T23:12:43.925Z,80.93
2024-03-23T23:17:51.778Z,81.01
2024-03-23T23:23:23.905Z,81.18
2024-03-23T23:29:04.007Z,81.27
2024-03-23T23:34:41.288Z,81.68
2024-03-23T23:40:35.663Z,81.67
2024-03-23T23:46:02.828Z,81.86
2024-03-23T23:52:18.127Z,81.94
2024-03-23T23:58:22.328Z,81.57
